Time;durP1;ratioP1;P1;durP2;ratioP2;P2;SDS_P1;SDS_P2;PMS_P1;PMS_P2;Temp;Humidity;BMP_temperature;BMP_pressure;BME280_temperature;BME280_humidity;BME280_pressure;Samples;Min_cycle;Max_cycle;Signal;HPM_P1;HPM_P2
2022/12/23 00:00:18;;;;;;;77.57;39.10;;;2.50;99.90;;;;;;4095855;29;20674;-59
2022/12/23 00:02:19;;;;;;;79.70;40.00;;;2.50;99.90;;;;;;4113193;28;20273;-56
2022/12/23 00:04:21;;;;;;;72.93;38.27;;;2.50;99.90;;;;;;4114355;28;20276;-57
2022/12/23 00:06:22;;;;;;;80.57;40.00;;;2.50;99.90;;;;;;4113194;28;20332;-58
2022/12/23 00:08:24;;;;;;;71.83;38.47;;;2.50;99.90;;;;;;4114377;28;20257;-59
2022/12/23 00:10:25;;;;;;;72.47;37.37;;;2.50;99.90;;;;;;4113084;28;20268;-59
2022/12/23 00:15:04;;;;;;;74.03;38.83;;;2.50;99.90;;;;;;4113456;28;20304;-60
2022/12/23 00:17:05;;;;;;;79.07;37.57;;;2.50;99.90;;;;;;4113576;28;20328;-59
2022/12/23 00:19:06;;;;;;;71.70;37.20;;;2.40;99.90;;;;;;4112067;28;20653;-58
2022/12/23 00:21:11;;;;;;;76.13;37.53;;;2.40;99.90;;;;;;4114368;28;20382;-60
2022/12/23 00:23:12;;;;;;;78.17;41.27;;;2.40;99.90;;;;;;4112738;28;20365;-59
2022/12/23 00:25:13;;;;;;;71.13;37.50;;;2.40;99.90;;;;;;4114438;28;20319;-59
2022/12/23 00:27:14;;;;;;;69.83;37.93;;;2.40;99.90;;;;;;4112762;28;20289;-61
2022/12/23 00:29:15;;;;;;;73.97;37.60;;;2.40;99.90;;;;;;4113781;28;20681;-60
2022/12/23 00:31:17;;;;;;;73.87;39.37;;;2.40;99.90;;;;;;4112573;28;20296;-61
2022/12/23 00:33:39;;;;;;;76.10;38.63;;;2.40;99.90;;;;;;4112928;28;20327;-61
2022/12/23 00:35:41;;;;;;;73.23;37.23;;;2.40;99.90;;;;;;4112358;28;20257;-60
2022/12/23 00:37:42;;;;;;;71.53;37.33;;;2.40;99.90;;;;;;4095391;29;20273;-60
2022/12/23 00:44:23;;;;;;;65.40;36.23;;;2.40;99.90;;;;;;4112352;28;20811;-60
2022/12/23 00:46:24;;;;;;;71.87;37.87;;;2.40;99.90;;;;;;4112896;28;20734;-60
2022/12/23 00:50:45;;;;;;;72.87;37.73;;;2.40;99.90;;;;;;4113553;28;20335;-57
2022/12/23 00:52:46;;;;;;;70.00;38.03;;;2.40;99.90;;;;;;4112302;28;20292;-60
2022/12/23 00:54:48;;;;;;;75.97;39.17;;;2.30;99.90;;;;;;4112987;28;20764;-60
2022/12/23 00:56:49;;;;;;;71.37;37.13;;;2.30;99.90;;;;;;4112286;28;20261;-61
2022/12/23 00:58:50;;;;;;;73.57;38.73;;;2.30;99.90;;;;;;4112771;28;20808;-61
2022/12/23 01:05:37;;;;;;;75.97;38.70;;;2.30;99.90;;;;;;4112879;28;20089;-60
2022/12/23 01:07:38;;;;;;;73.53;38.33;;;2.20;99.90;;;;;;4112948;28;20315;-62
2022/12/23 01:09:40;;;;;;;79.10;39.00;;;2.20;99.90;;;;;;4113179;28;20268;-61
2022/12/23 01:11:41;;;;;;;74.33;39.67;;;2.20;99.90;;;;;;4112475;28;20367;-61
2022/12/23 01:13:42;;;;;;;83.90;42.83;;;2.20;99.90;;;;;;4113596;28;20803;-59
2022/12/23 01:15:44;;;;;;;82.00;40.67;;;2.20;99.90;;;;;;4112303;28;20261;-60
2022/12/23 01:17:45;;;;;;;78.13;39.90;;;2.10;99.90;;;;;;4113222;28;20261;-62
2022/12/23 01:19:46;;;;;;;76.57;39.60;;;2.10;99.90;;;;;;4112291;28;20312;-60
2022/12/23 01:21:47;;;;;;;80.77;41.07;;;2.10;99.90;;;;;;4113464;28;20327;-57
2022/12/23 01:23:48;;;;;;;78.50;40.57;;;2.10;99.90;;;;;;4112249;28;20307;-61
2022/12/23 01:26:02;;;;;;;82.97;41.33;;;2.10;99.90;;;;;;4113887;28;20796;-60
2022/12/23 01:28:03;;;;;;;77.20;41.07;;;2.10;99.90;;;;;;4111132;28;20292;-59
2022/12/23 01:30:05;;;;;;;85.13;41.80;;;2.10;99.90;;;;;;4113130;28;20339;-60
2022/12/23 01:32:06;;;;;;;84.80;43.50;;;2.10;99.90;;;;;;4111707;28;20284;-58
2022/12/23 01:34:07;;;;;;;77.70;40.73;;;2.10;99.90;;;;;;4113010;28;20327;-59
2022/12/23 01:36:09;;;;;;;85.03;43.23;;;2.10;99.90;;;;;;4112222;28;20660;-61
2022/12/23 01:38:11;;;;;;;75.30;38.97;;;2.10;99.90;;;;;;4112837;28;20272;-58
2022/12/23 01:40:12;;;;;;;76.90;38.90;;;2.10;99.90;;;;;;4112397;28;20272;-59
2022/12/23 01:45:12;;;;;;;74.43;40.77;;;2.00;99.90;;;;;;4112870;28;20323;-58
2022/12/23 01:47:24;;;;;;;74.90;39.10;;;2.00;99.90;;;;;;4063814;28;20284;-60
2022/12/23 01:49:26;;;;;;;74.63;39.00;;;2.00;99.90;;;;;;4111249;28;20290;-59
2022/12/23 01:51:29;;;;;;;75.20;40.07;;;2.00;99.90;;;;;;4112813;28;20280;-59
2022/12/23 01:53:35;;;;;;;85.60;42.33;;;2.00;99.90;;;;;;4111884;28;20343;-60
2022/12/23 01:56:01;;;;;;;84.53;41.57;;;2.00;99.90;;;;;;4112960;28;20280;-58
2022/12/23 01:58:10;;;;;;;82.73;41.97;;;1.90;99.90;;;;;;4100029;28;20280;-63
2022/12/23 02:04:55;;;;;;;91.27;44.10;;;1.80;99.90;;;;;;4112972;28;20105;-59
2022/12/23 02:09:27;;;;;;;102.77;48.20;;;1.80;99.90;;;;;;4112895;28;20619;-58
2022/12/23 02:11:56;;;;;;;99.13;50.57;;;1.80;99.90;;;;;;4111778;28;20300;-59
2022/12/23 02:17:31;;;;;;;105.87;51.50;;;1.80;99.90;;;;;;4090373;28;20348;-58
2022/12/23 02:20:10;;;;;;;98.43;49.57;;;1.80;99.90;;;;;;4077187;28;20323;-57
2022/12/23 02:22:33;;;;;;;108.27;50.10;;;1.70;99.90;;;;;;4115677;28;20280;-62
2022/12/23 02:24:43;;;;;;;102.70;47.63;;;1.70;99.90;;;;;;4115008;28;20749;-63
2022/12/23 02:27:15;;;;;;;101.63;49.63;;;1.70;99.90;;;;;;4115766;28;20284;-56
2022/12/23 02:29:16;;;;;;;95.47;49.37;;;1.60;99.90;;;;;;4114880;28;20269;-57
2022/12/23 02:31:23;;;;;;;105.97;49.73;;;1.70;99.90;;;;;;4115669;28;20823;-59
2022/12/23 02:33:50;;;;;;;94.30;47.30;;;1.70;99.90;;;;;;4114200;28;20332;-59
2022/12/23 02:36:26;;;;;;;100.83;47.63;;;1.70;99.90;;;;;;4115871;28;20673;-58
2022/12/23 02:38:55;;;;;;;92.13;46.57;;;1.70;99.90;;;;;;4115238;28;20327;-60
2022/12/23 02:41:15;;;;;;;86.50;44.00;;;1.60;99.90;;;;;;4100887;28;20273;-59
2022/12/23 02:43:39;;;;;;;92.30;45.88;;;1.60;99.90;;;;;;4115609;28;20273;-60
2022/12/23 02:45:55;;;;;;;94.47;45.03;;;1.60;99.90;;;;;;4114003;28;20034;-58
2022/12/23 02:48:03;;;;;;;90.33;45.10;;;1.60;99.90;;;;;;4115115;28;20312;-58
2022/12/23 02:50:15;;;;;;;91.67;43.90;;;1.50;99.90;;;;;;4114296;28;20320;-58
2022/12/23 02:52:20;;;;;;;92.50;46.07;;;1.50;99.90;;;;;;4115538;28;20300;-58
2022/12/23 02:54:29;;;;;;;92.83;46.03;;;1.50;99.90;;;;;;4114438;28;20273;-58
2022/12/23 02:56:34;;;;;;;99.67;47.57;;;1.60;99.90;;;;;;4115717;28;20323;-59
2022/12/23 02:58:41;;;;;;;92.50;46.27;;;1.60;99.90;;;;;;4113582;28;20327;-57
2022/12/23 03:00:44;;;;;;;92.67;45.93;;;1.60;99.90;;;;;;4115370;28;20598;-60
2022/12/23 03:02:45;;;;;;;95.43;48.73;;;1.60;99.90;;;;;;4114232;28;20688;-60
2022/12/23 03:04:46;;;;;;;92.93;46.37;;;1.50;99.90;;;;;;4114723;28;20348;-59
2022/12/23 03:06:51;;;;;;;97.43;48.73;;;1.60;99.90;;;;;;4113952;28;20292;-55
2022/12/23 03:08:56;;;;;;;101.27;52.90;;;1.60;99.90;;;;;;4114838;28;20796;-60
2022/12/23 03:11:15;;;;;;;101.00;50.73;;;1.60;99.90;;;;;;4113927;28;20276;-59
2022/12/23 03:13:36;;;;;;;114.47;57.63;;;1.60;99.90;;;;;;4114531;28;20276;-60
2022/12/23 03:16:09;;;;;;;95.15;48.03;;;1.60;99.90;;;;;;4097065;29;20300;-59
2022/12/23 03:18:31;;;;;;;101.50;49.93;;;1.60;99.90;;;;;;4114699;28;20475;-61
2022/12/23 03:20:53;;;;;;;95.57;49.10;;;1.60;99.90;;;;;;4113942;28;20265;-57
2022/12/23 03:23:04;;;;;;;97.40;46.37;;;1.60;99.90;;;;;;4115110;28;20634;-57
2022/12/23 03:25:12;;;;;;;96.70;46.97;;;1.60;99.90;;;;;;4114403;28;20804;-57
2022/12/23 03:27:20;;;;;;;91.27;44.37;;;1.50;99.90;;;;;;4115035;28;20587;-58
2022/12/23 03:29:46;;;;;;;86.17;44.10;;;1.50;99.90;;;;;;4113563;28;20343;-59
2022/12/23 03:31:49;;;;;;;97.40;49.03;;;1.50;99.90;;;;;;4115044;28;20343;-62
2022/12/23 03:33:57;;;;;;;116.43;56.53;;;1.40;99.90;;;;;;4112999;28;20269;-58
2022/12/23 03:36:05;;;;;;;122.60;61.37;;;1.40;99.90;;;;;;4114918;28;20269;-60
2022/12/23 03:38:08;;;;;;;126.80;61.70;;;1.40;99.90;;;;;;4113617;28;20277;-60
2022/12/23 03:40:14;;;;;;;121.47;60.47;;;1.40;99.90;;;;;;4114752;28;20713;-59
2022/12/23 03:42:35;;;;;;;130.10;59.93;;;1.40;99.90;;;;;;4113779;28;20260;-60
2022/12/23 03:44:42;;;;;;;96.00;46.67;;;1.40;99.90;;;;;;4113875;28;20828;-59
2022/12/23 03:46:50;;;;;;;96.50;45.43;;;1.20;99.90;;;;;;4113391;28;20030;-60
2022/12/23 03:48:56;;;;;;;129.87;60.00;;;1.20;99.90;;;;;;4114744;28;20731;-63
2022/12/23 03:51:03;;;;;;;111.37;54.67;;;1.20;99.90;;;;;;4112653;28;20827;-59
2022/12/23 03:53:15;;;;;;;106.17;52.67;;;1.20;99.90;;;;;;4114494;28;20277;-59
2022/12/23 03:55:22;;;;;;;105.30;52.13;;;1.20;99.90;;;;;;4113940;28;20324;-59
2022/12/23 03:57:33;;;;;;;108.30;49.63;;;1.30;99.90;;;;;;4114194;28;20343;-59
2022/12/23 03:59:39;;;;;;;104.00;50.40;;;1.30;99.90;;;;;;4113136;28;20324;-60
2022/12/23 04:01:58;;;;;;;90.30;47.93;;;1.30;99.90;;;;;;4114044;28;20308;-59
2022/12/23 04:04:06;;;;;;;98.40;47.20;;;1.30;99.90;;;;;;4112576;28;20300;-61
2022/12/23 04:06:13;;;;;;;84.03;44.60;;;1.40;99.90;;;;;;4114232;28;20331;-57
2022/12/23 04:08:36;;;;;;;89.13;43.63;;;1.40;99.90;;;;;;4113217;28;20652;-62
2022/12/23 04:10:37;;;;;;;84.03;41.60;;;1.40;99.90;;;;;;4114457;28;20323;-61
2022/12/23 04:12:38;;;;;;;88.63;44.50;;;1.40;99.90;;;;;;4113224;28;21009;-61
2022/12/23 04:14:48;;;;;;;88.10;47.10;;;1.40;99.90;;;;;;4114475;28;20633;-61
2022/12/23 04:16:58;;;;;;;86.30;46.30;;;1.40;99.90;;;;;;4113137;28;20276;-60
2022/12/23 04:18:59;;;;;;;94.23;46.17;;;1.40;99.90;;;;;;4114303;28;20753;-61
2022/12/23 04:21:00;;;;;;;84.03;44.73;;;1.40;99.90;;;;;;4112870;28;20277;-60
2022/12/23 04:23:01;;;;;;;84.53;41.50;;;1.50;99.90;;;;;;4114374;28;20831;-61
2022/12/23 04:25:03;;;;;;;81.73;42.87;;;1.50;99.90;;;;;;4112098;28;20335;-62
2022/12/23 04:27:05;;;;;;;82.40;43.20;;;1.40;99.90;;;;;;4114118;28;20895;-61
2022/12/23 04:29:06;;;;;;;80.70;43.63;;;1.50;99.90;;;;;;4113186;28;20269;-61
2022/12/23 04:31:07;;;;;;;80.27;43.87;;;1.50;99.90;;;;;;4113453;28;20277;-64
2022/12/23 04:33:11;;;;;;;89.70;43.60;;;1.50;99.90;;;;;;4113375;28;20296;-64
2022/12/23 04:35:12;;;;;;;76.37;42.03;;;1.50;99.90;;;;;;4112107;28;20355;-63
2022/12/23 04:37:13;;;;;;;75.90;39.37;;;1.50;99.90;;;;;;4113495;28;20335;-61
2022/12/23 04:39:14;;;;;;;80.00;42.17;;;1.60;99.90;;;;;;4111295;28;20343;-61
2022/12/23 04:41:15;;;;;;;75.13;42.07;;;1.60;99.90;;;;;;4112682;28;20670;-60
2022/12/23 04:43:16;;;;;;;82.57;42.70;;;1.70;99.90;;;;;;4112344;28;20264;-63
2022/12/23 04:45:17;;;;;;;92.13;45.17;;;1.70;99.90;;;;;;4113923;28;20257;-61
2022/12/23 04:47:19;;;;;;;84.40;43.83;;;1.60;99.90;;;;;;4112356;28;20291;-59
2022/12/23 04:49:20;;;;;;;77.47;42.03;;;1.70;99.90;;;;;;4112641;28;20284;-62
2022/12/23 04:51:21;;;;;;;83.40;43.00;;;1.70;99.90;;;;;;4112191;28;20284;-63
2022/12/23 04:53:22;;;;;;;76.27;40.67;;;1.60;99.90;;;;;;4113756;28;20264;-62
2022/12/23 04:55:23;;;;;;;77.23;40.37;;;1.60;99.90;;;;;;4112262;28;20273;-61
2022/12/23 04:57:24;;;;;;;82.97;45.97;;;1.60;99.90;;;;;;4112904;28;20685;-62
2022/12/23 04:59:25;;;;;;;86.83;45.73;;;1.50;99.90;;;;;;4112189;28;20339;-73
2022/12/23 05:01:27;;;;;;;82.37;46.20;;;1.50;99.90;;;;;;4112590;28;20336;-63
2022/12/23 05:03:30;;;;;;;87.50;47.37;;;1.50;99.90;;;;;;4112324;28;20276;-66
2022/12/23 05:05:31;;;;;;;82.53;44.50;;;1.50;99.90;;;;;;4111852;28;20296;-61
2022/12/23 05:07:32;;;;;;;84.83;45.33;;;1.50;99.90;;;;;;4113181;28;20265;-68
2022/12/23 05:09:33;;;;;;;84.80;43.67;;;1.50;99.90;;;;;;4111858;28;20264;-63
2022/12/23 05:11:34;;;;;;;77.73;41.70;;;1.50;99.90;;;;;;4113349;28;20654;-60
2022/12/23 05:13:36;;;;;;;89.20;45.70;;;1.50;99.90;;;;;;4111643;28;20626;-63
2022/12/23 05:15:37;;;;;;;89.37;46.97;;;1.60;99.90;;;;;;4111254;28;20262;-59
2022/12/23 05:17:38;;;;;;;86.23;45.73;;;1.60;99.90;;;;;;4100639;28;20276;-58
2022/12/23 05:19:39;;;;;;;90.03;46.37;;;1.70;99.90;;;;;;4113361;28;20319;-59
2022/12/23 05:21:40;;;;;;;82.67;43.70;;;1.70;99.90;;;;;;4110762;28;20626;-58
2022/12/23 05:23:41;;;;;;;112.57;56.73;;;1.70;99.90;;;;;;4113148;28;20268;-60
2022/12/23 05:25:42;;;;;;;101.87;51.50;;;1.70;99.90;;;;;;4112094;28;20261;-60
2022/12/23 05:27:43;;;;;;;90.33;46.80;;;1.70;99.90;;;;;;4113151;28;20763;-63
2022/12/23 05:29:45;;;;;;;80.37;43.63;;;1.70;99.90;;;;;;4111389;28;20260;-57
2022/12/23 05:31:46;;;;;;;85.13;43.87;;;1.70;99.90;;;;;;4112022;28;20273;-59
2022/12/23 05:33:47;;;;;;;89.53;46.63;;;1.80;99.90;;;;;;4111543;28;20740;-59
2022/12/23 05:35:48;;;;;;;95.47;48.20;;;1.80;99.90;;;;;;4111495;28;20335;-60
2022/12/23 05:37:49;;;;;;;99.17;49.70;;;1.80;99.90;;;;;;4108601;28;20872;-60
2022/12/23 05:39:50;;;;;;;103.63;52.30;;;1.80;99.90;;;;;;4110376;28;20273;-60
2022/12/23 05:41:52;;;;;;;96.30;47.77;;;1.80;99.90;;;;;;4111615;28;20292;-58
2022/12/23 05:43:53;;;;;;;92.27;46.97;;;1.80;99.90;;;;;;4111898;28;20323;-70
2022/12/23 05:45:54;;;;;;;90.33;45.37;;;1.80;99.90;;;;;;4112781;28;20289;-69
2022/12/23 05:47:55;;;;;;;88.43;45.50;;;1.80;99.90;;;;;;4111768;28;20335;-61
2022/12/23 05:49:56;;;;;;;81.83;43.27;;;1.70;99.90;;;;;;4112773;28;20300;-62
2022/12/23 05:51:57;;;;;;;98.73;46.17;;;1.70;99.90;;;;;;4094117;28;20301;-60
2022/12/23 05:53:58;;;;;;;91.93;46.53;;;1.70;99.90;;;;;;4112805;28;20276;-61
2022/12/23 05:56:03;;;;;;;97.83;48.03;;;1.70;99.90;;;;;;4111411;28;20293;-58
2022/12/23 05:58:04;;;;;;;92.77;48.77;;;1.60;99.90;;;;;;4112182;28;20325;-60
2022/12/23 06:00:06;;;;;;;106.97;49.03;;;1.60;99.90;;;;;;4111001;28;20329;-58
2022/12/23 06:02:07;;;;;;;101.73;49.07;;;1.70;99.90;;;;;;4110851;28;20343;-55
2022/12/23 06:04:08;;;;;;;102.43;51.50;;;1.70;99.90;;;;;;4110414;28;20331;-60
2022/12/23 06:06:10;;;;;;;103.57;50.60;;;1.70;99.90;;;;;;4111478;28;20324;-61
2022/12/23 06:08:11;;;;;;;96.73;47.90;;;1.70;99.90;;;;;;4110398;28;20339;-61
2022/12/23 06:10:12;;;;;;;93.13;45.67;;;1.70;99.90;;;;;;4110073;28;20268;-58
2022/12/23 06:12:13;;;;;;;98.33;50.10;;;1.70;99.90;;;;;;4111629;28;20293;-55
2022/12/23 06:14:14;;;;;;;133.43;65.10;;;1.80;99.90;;;;;;4111273;28;20339;-58
2022/12/23 06:16:15;;;;;;;109.83;57.27;;;1.70;99.90;;;;;;4112214;28;20323;-59
2022/12/23 06:18:16;;;;;;;106.17;53.00;;;1.60;99.90;;;;;;4110735;28;20320;-59
2022/12/23 06:20:17;;;;;;;83.87;44.67;;;1.60;99.90;;;;;;4112021;28;20836;-59
2022/12/23 06:22:20;;;;;;;77.67;40.93;;;1.60;99.90;;;;;;4110470;28;20705;-57
2022/12/23 06:24:23;;;;;;;79.80;41.07;;;1.50;99.90;;;;;;4112440;28;20684;-62
2022/12/23 06:26:25;;;;;;;82.80;42.17;;;1.40;99.90;;;;;;4110996;28;20269;-57
2022/12/23 06:28:28;;;;;;;76.60;41.63;;;1.20;99.90;;;;;;4112464;28;20269;-59
2022/12/23 06:30:29;;;;;;;76.63;40.57;;;1.20;99.90;;;;;;4111197;28;20323;-59
2022/12/23 06:32:30;;;;;;;78.40;40.87;;;1.10;99.90;;;;;;4112216;28;20831;-55
2022/12/23 06:34:31;;;;;;;81.50;41.30;;;1.10;99.90;;;;;;4110386;28;20363;-59
2022/12/23 06:36:32;;;;;;;74.67;41.10;;;1.20;99.90;;;;;;4104811;28;20281;-60
2022/12/23 06:38:33;;;;;;;81.00;41.53;;;1.20;99.90;;;;;;4098956;28;20851;-57
2022/12/23 06:40:35;;;;;;;72.93;38.93;;;1.20;99.90;;;;;;4099733;28;20285;-57
2022/12/23 06:42:36;;;;;;;84.73;40.30;;;1.20;99.90;;;;;;4104876;28;20331;-58
2022/12/23 06:44:37;;;;;;;79.87;41.67;;;1.20;99.90;;;;;;4111338;28;20324;-58
2022/12/23 06:46:38;;;;;;;80.97;42.80;;;1.30;99.90;;;;;;4112522;28;20269;-58
2022/12/23 06:48:39;;;;;;;81.60;41.37;;;1.40;99.90;;;;;;4108988;28;20272;-57
2022/12/23 06:50:40;;;;;;;81.70;41.97;;;1.40;99.90;;;;;;4112380;28;20721;-58
2022/12/23 06:52:41;;;;;;;79.20;40.40;;;1.50;99.90;;;;;;4111271;28;20308;-58
2022/12/23 06:54:42;;;;;;;81.83;40.93;;;1.50;99.90;;;;;;4112337;28;20799;-58
2022/12/23 06:56:43;;;;;;;82.23;42.07;;;1.50;99.90;;;;;;4111330;28;20266;-58
2022/12/23 06:58:45;;;;;;;81.37;41.70;;;1.50;99.90;;;;;;4112041;28;20772;-59
2022/12/23 07:00:46;;;;;;;86.67;43.33;;;1.40;99.90;;;;;;4110459;28;20675;-56
2022/12/23 07:02:47;;;;;;;90.40;44.07;;;1.50;99.90;;;;;;4112206;28;20276;-58
2022/12/23 07:04:48;;;;;;;83.93;43.50;;;1.50;99.90;;;;;;4113826;28;20855;-58
2022/12/23 07:06:49;;;;;;;85.20;44.77;;;1.50;99.90;;;;;;4114325;28;20327;-60
2022/12/23 07:08:50;;;;;;;89.73;45.30;;;1.50;99.90;;;;;;4114118;28;20741;-62
2022/12/23 07:10:57;;;;;;;85.43;44.47;;;1.50;99.90;;;;;;4114274;28;20276;-61
2022/12/23 07:13:00;;;;;;;84.30;43.10;;;1.60;99.90;;;;;;4113663;28;20366;-59
2022/12/23 07:15:02;;;;;;;90.73;49.23;;;1.70;99.90;;;;;;4113197;28;20281;-58
2022/12/23 07:17:03;;;;;;;90.60;48.73;;;1.70;99.90;;;;;;4113974;28;20257;-55
2022/12/23 07:19:05;;;;;;;96.33;49.87;;;2.00;99.90;;;;;;4113475;28;20273;-62
2022/12/23 07:21:06;;;;;;;105.03;54.83;;;2.20;99.90;;;;;;4114398;28;20315;-57
2022/12/23 07:23:07;;;;;;;100.13;51.23;;;2.40;99.90;;;;;;4114093;28;20825;-56
2022/12/23 07:25:08;;;;;;;83.60;44.03;;;2.60;99.90;;;;;;4115145;28;20383;-59
2022/12/23 07:27:09;;;;;;;80.63;43.93;;;2.80;99.90;;;;;;4115015;28;20320;-58
2022/12/23 07:29:10;;;;;;;80.17;43.93;;;2.90;99.90;;;;;;4114268;28;20269;-59
2022/12/23 07:31:12;;;;;;;80.43;43.57;;;3.20;99.90;;;;;;4113628;28;20319;-59
2022/12/23 07:33:13;;;;;;;82.37;44.57;;;3.30;99.90;;;;;;4114566;28;20289;-60
2022/12/23 07:35:14;;;;;;;86.40;46.80;;;3.60;99.90;;;;;;4113129;28;22038;-63
2022/12/23 07:37:16;;;;;;;90.20;48.83;;;3.80;99.90;;;;;;4123760;28;20269;-60
2022/12/23 07:39:17;;;;;;;85.57;47.37;;;3.90;99.90;;;;;;4129549;28;20303;-63
2022/12/23 07:41:18;;;;;;;104.00;53.37;;;3.80;99.90;;;;;;4129906;28;20042;-62
2022/12/23 07:43:19;;;;;;;97.20;51.37;;;3.70;99.90;;;;;;4114464;28;20495;-59
2022/12/23 07:45:20;;;;;;;114.80;58.53;;;3.70;99.90;;;;;;4113285;28;20035;-61
2022/12/23 07:47:22;;;;;;;110.30;59.77;;;3.60;99.90;;;;;;4114122;28;20664;-59
2022/12/23 07:49:23;;;;;;;112.37;57.17;;;3.70;99.90;;;;;;4099173;28;20078;-60
2022/12/23 07:51:24;;;;;;;108.43;56.03;;;3.80;99.90;;;;;;4098743;29;20047;-59
2022/12/23 07:53:25;;;;;;;99.07;53.67;;;4.20;99.90;;;;;;4111320;28;20050;-59
2022/12/23 07:55:26;;;;;;;97.27;49.30;;;4.30;99.90;;;;;;4114410;28;20074;-59
2022/12/23 07:57:28;;;;;;;76.70;42.70;;;4.50;99.90;;;;;;4110753;28;20026;-58
2022/12/23 07:59:29;;;;;;;82.30;46.33;;;4.50;99.90;;;;;;4113912;28;20094;-59
2022/12/23 08:01:30;;;;;;;82.10;46.23;;;4.60;99.90;;;;;;4104740;28;20043;-59
2022/12/23 08:03:31;;;;;;;75.00;43.83;;;4.80;99.90;;;;;;4104058;28;20039;-58
2022/12/23 08:05:32;;;;;;;77.43;43.93;;;4.90;99.90;;;;;;4113082;28;20167;-60
2022/12/23 08:07:34;;;;;;;79.20;44.13;;;5.10;99.90;;;;;;4114011;28;20039;-63
2022/12/23 08:09:35;;;;;;;74.00;43.93;;;5.30;99.90;;;;;;4112398;28;20093;-57
2022/12/23 08:11:36;;;;;;;72.43;42.57;;;5.40;99.90;;;;;;4113014;28;20098;-59
2022/12/23 08:13:39;;;;;;;81.40;45.70;;;5.50;99.90;;;;;;4112412;28;20101;-57
2022/12/23 08:15:41;;;;;;;75.90;39.87;;;5.50;99.90;;;;;;4111281;28;20101;-61
2022/12/23 08:17:42;;;;;;;75.27;43.33;;;5.70;99.90;;;;;;4112992;28;20034;-62
2022/12/23 08:19:43;;;;;;;76.83;44.30;;;5.80;99.90;;;;;;4112604;28;20582;-60
2022/12/23 08:21:44;;;;;;;73.10;41.80;;;5.80;99.90;;;;;;4113075;28;20034;-60
2022/12/23 08:23:46;;;;;;;73.70;41.57;;;5.70;99.90;;;;;;4111902;28;20495;-62
2022/12/23 08:25:47;;;;;;;74.27;43.47;;;5.60;99.90;;;;;;4113803;28;20077;-63
2022/12/23 08:27:49;;;;;;;70.13;43.63;;;5.50;99.90;;;;;;4112992;28;20081;-56
2022/12/23 08:29:51;;;;;;;81.33;46.03;;;5.80;99.90;;;;;;4093572;28;20087;-60
2022/12/23 08:31:53;;;;;;;74.57;42.53;;;5.70;99.90;;;;;;4112354;28;20027;-59
2022/12/23 08:33:55;;;;;;;79.57;44.90;;;5.60;99.90;;;;;;4113082;28;20495;-59
2022/12/23 08:35:57;;;;;;;79.43;46.00;;;5.60;99.90;;;;;;4110793;28;20086;-63
2022/12/23 08:37:58;;;;;;;80.23;45.83;;;5.90;99.90;;;;;;4113257;28;20043;-60
2022/12/23 08:39:59;;;;;;;77.57;46.73;;;6.10;99.90;;;;;;4111458;28;20023;-59
2022/12/23 08:42:00;;;;;;;78.83;45.07;;;6.20;99.90;;;;;;4112463;28;20094;-59
2022/12/23 08:44:02;;;;;;;79.77;45.60;;;6.40;99.90;;;;;;4112353;28;20027;-64
2022/12/23 08:46:04;;;;;;;81.87;46.37;;;6.60;99.90;;;;;;4112655;28;20085;-62
2022/12/23 08:48:06;;;;;;;78.40;45.93;;;6.60;99.90;;;;;;4113354;28;20031;-64
2022/12/23 08:50:07;;;;;;;71.20;42.07;;;6.50;99.90;;;;;;4112238;28;20034;-63
2022/12/23 08:52:08;;;;;;;73.63;42.27;;;6.30;99.90;;;;;;4112701;28;20105;-54
2022/12/23 08:54:09;;;;;;;71.97;42.00;;;6.20;99.90;;;;;;4112059;28;20495;-59
2022/12/23 08:56:14;;;;;;;75.27;43.70;;;6.00;99.90;;;;;;4113196;28;20429;-61
2022/12/23 08:58:15;;;;;;;75.90;42.73;;;6.00;99.90;;;;;;4111508;28;20085;-60
2022/12/23 09:00:16;;;;;;;72.77;42.43;;;6.00;99.90;;;;;;4113278;28;20042;-60
2022/12/23 09:02:17;;;;;;;77.43;42.93;;;6.10;99.90;;;;;;4095026;28;20043;-60
2022/12/23 09:04:18;;;;;;;72.33;42.00;;;6.20;99.90;;;;;;4112649;28;20039;-57
2022/12/23 09:06:22;;;;;;;78.27;43.23;;;6.00;99.90;;;;;;4112040;28;20038;-62
2022/12/23 09:08:23;;;;;;;72.57;42.10;;;5.90;99.90;;;;;;4111784;28;20346;-59
2022/12/23 09:10:25;;;;;;;76.83;41.53;;;5.70;99.90;;;;;;4111503;28;20450;-58
2022/12/23 09:12:26;;;;;;;76.30;41.03;;;5.30;99.90;;;;;;4111528;28;20459;-55
2022/12/23 09:14:27;;;;;;;72.53;39.80;;;5.10;99.90;;;;;;4094833;29;20115;-60
2022/12/23 09:16:29;;;;;;;77.10;42.70;;;5.00;99.90;;;;;;4111933;28;20035;-59
2022/12/23 09:18:30;;;;;;;86.17;43.93;;;4.90;99.90;;;;;;4112395;28;20459;-60
2022/12/23 09:20:31;;;;;;;76.93;42.77;;;4.80;99.90;;;;;;4112374;28;20034;-59
2022/12/23 09:22:33;;;;;;;75.87;41.50;;;4.70;99.90;;;;;;4111835;28;20105;-59
2022/12/23 09:24:34;;;;;;;79.27;41.10;;;4.60;99.90;;;;;;4105122;28;20098;-61
2022/12/23 09:26:35;;;;;;;72.17;38.93;;;4.50;99.90;;;;;;4100207;28;20019;-58
2022/12/23 09:28:38;;;;;;;74.27;40.30;;;4.30;99.90;;;;;;4127867;28;20443;-59
2022/12/23 09:30:39;;;;;;;76.07;41.20;;;4.30;99.90;;;;;;4128692;28;20362;-58
2022/12/23 09:32:40;;;;;;;75.93;40.73;;;4.20;99.90;;;;;;4127344;28;20315;-57
2022/12/23 09:34:41;;;;;;;80.07;44.10;;;4.10;99.90;;;;;;4124203;28;20662;-60
2022/12/23 09:36:42;;;;;;;79.53;43.00;;;4.10;99.90;;;;;;4110719;28;20276;-60
2022/12/23 09:38:43;;;;;;;72.63;40.63;;;4.10;99.90;;;;;;4112489;28;20347;-60
2022/12/23 09:40:45;;;;;;;76.33;42.00;;;4.10;99.90;;;;;;4111118;28;20332;-61
2022/12/23 09:43:03;;;;;;;85.10;41.63;;;4.10;99.90;;;;;;4111911;28;20335;-61
2022/12/23 09:45:07;;;;;;;79.90;39.57;;;4.00;99.90;;;;;;4111162;28;20319;-64
2022/12/23 09:47:16;;;;;;;70.33;38.07;;;4.00;99.90;;;;;;4112003;28;20409;-60
2022/12/23 09:49:18;;;;;;;75.87;39.87;;;4.00;99.90;;;;;;4111312;28;20273;-58
2022/12/23 09:51:22;;;;;;;77.70;40.20;;;3.90;99.90;;;;;;4112297;28;20265;-59
2022/12/23 09:53:54;;;;;;;77.67;41.83;;;4.00;99.90;;;;;;4111259;28;20828;-58
2022/12/23 09:55:56;;;;;;;83.67;41.83;;;3.90;99.90;;;;;;4099638;28;20289;-58
2022/12/23 09:58:00;;;;;;;81.37;41.97;;;3.90;99.90;;;;;;4111622;28;20768;-58
2022/12/23 10:00:13;;;;;;;80.03;41.27;;;4.00;99.90;;;;;;4111614;28;20619;-60
2022/12/23 10:02:29;;;;;;;84.30;43.27;;;4.00;99.90;;;;;;4111255;28;20260;-63
2022/12/23 10:04:35;;;;;;;77.37;43.13;;;4.10;99.90;;;;;;4111262;28;20407;-60
2022/12/23 10:06:38;;;;;;;83.83;44.77;;;4.10;99.90;;;;;;4110973;28;20272;-59
2022/12/23 10:08:48;;;;;;;84.83;45.53;;;4.10;99.90;;;;;;4111905;28;20270;-62
2022/12/23 10:10:54;;;;;;;86.90;43.65;;;4.10;99.90;;;;;;4110419;28;20340;-61
2022/12/23 10:12:58;;;;;;;91.53;44.93;;;4.10;99.90;;;;;;4111002;28;20038;-58
2022/12/23 10:15:03;;;;;;;85.27;44.87;;;4.00;99.90;;;;;;4110355;28;20289;-60
2022/12/23 10:17:14;;;;;;;86.80;46.13;;;4.10;99.90;;;;;;4111956;28;20331;-59
2022/12/23 10:19:25;;;;;;;86.60;44.47;;;4.00;99.90;;;;;;4111961;28;20327;-59
2022/12/23 10:21:50;;;;;;;85.00;44.33;;;4.00;99.90;;;;;;4111333;28;20347;-59
2022/12/23 10:23:53;;;;;;;89.23;45.53;;;4.10;99.90;;;;;;4110598;28;20030;-58
2022/12/23 10:25:54;;;;;;;87.10;46.77;;;4.20;99.90;;;;;;4111318;28;20269;-60
2022/12/23 10:27:55;;;;;;;92.07;47.97;;;4.20;99.90;;;;;;4111125;28;20295;-59
2022/12/23 10:30:06;;;;;;;81.97;44.47;;;4.20;99.90;;;;;;4110949;28;20673;-58
2022/12/23 10:32:29;;;;;;;82.37;42.97;;;4.30;99.90;;;;;;4110488;28;20784;-61
2022/12/23 10:34:36;;;;;;;77.87;43.17;;;4.30;99.90;;;;;;4111682;28;20289;-59
2022/12/23 10:37:03;;;;;;;79.13;43.07;;;4.30;99.90;;;;;;4111085;28;20272;-59
2022/12/23 10:39:26;;;;;;;75.90;41.33;;;4.30;99.90;;;;;;4114522;28;20293;-62
2022/12/23 10:41:47;;;;;;;80.37;40.07;;;4.40;99.90;;;;;;4114231;28;20532;-59
2022/12/23 10:44:25;;;;;;;75.38;40.53;;;4.30;99.90;;;;;;4114038;28;20284;-59
2022/12/23 10:47:02;;;;;;;85.00;41.33;;;4.30;99.90;;;;;;4112336;28;20035;-56
2022/12/23 10:49:19;;;;;;;80.90;42.57;;;4.40;99.90;;;;;;4115141;28;20265;-59
2022/12/23 10:51:32;;;;;;;82.83;42.30;;;4.40;99.90;;;;;;4113060;28;20753;-58
2022/12/23 10:53:33;;;;;;;76.43;40.43;;;4.50;99.90;;;;;;4114597;28;20289;-58
2022/12/23 10:55:37;;;;;;;77.13;41.00;;;4.50;99.90;;;;;;4113837;28;20277;-55
2022/12/23 10:57:38;;;;;;;84.77;43.10;;;4.60;99.90;;;;;;4115532;28;20590;-56
2022/12/23 10:59:40;;;;;;;79.03;41.07;;;4.60;99.90;;;;;;4113976;28;20733;-55
2022/12/23 11:01:46;;;;;;;73.37;40.40;;;4.70;99.90;;;;;;4115198;28;20324;-62
2022/12/23 11:03:59;;;;;;;80.67;40.47;;;4.80;99.90;;;;;;4113770;28;20285;-65
2022/12/23 11:06:02;;;;;;;81.87;40.20;;;4.80;99.90;;;;;;4114834;28;20339;-66
2022/12/23 11:08:03;;;;;;;75.80;40.67;;;4.80;99.90;;;;;;4113604;28;20277;-60